Graf, Nebraska
Current Conditions -  °F | °C
As of 5:35 AM on Saturday 25 Oct 2014 (Local Time) from KAFK Reporting Station
Clear Clear  
Wind Chill: 56°   Ceiling: Unl
Heat Index: 56°   Visibility: 10mi
Dew Point: 47°   Wind: 0mph
Humidity: 72%   Direction: NA
Pressure: 30.04"   Gusts: NA
Location:  40.3627°N, 96.254°W
Report Text: KAFK 251035Z AUTO 00000KT 10SM CLR 13/09 A3004 RMK AO2 T01340085
Loading
Personal Weather Stations






























Interactive Weather Map
Tropical Storm Tracking
New forecast layout! Learn more

10-Day Weather Forecast

Advertisements
Track Severe Weather on mobile